createdAt,value
2017-06-12T00:01:14.642Z,17.50
2017-06-12T00:03:42.437Z,17.50
2017-06-12T00:06:10.177Z,17.60
2017-06-12T00:08:37.908Z,17.60
2017-06-12T00:11:05.669Z,17.60
2017-06-12T00:13:34.160Z,17.50
2017-06-12T00:16:01.932Z,17.50
2017-06-12T00:18:29.660Z,17.60
2017-06-12T00:20:58.151Z,17.50
2017-06-12T00:23:25.912Z,17.50
2017-06-12T00:25:54.399Z,17.40
2017-06-12T00:28:22.934Z,17.30
2017-06-12T00:30:50.716Z,17.30
2017-06-12T00:33:18.439Z,17.20
2017-06-12T00:35:46.196Z,17.10
2017-06-12T00:38:13.934Z,17.10
2017-06-12T00:40:41.705Z,17.10
2017-06-12T00:43:09.507Z,17.10
2017-06-12T00:45:37.237Z,17.20
2017-06-12T00:48:05.001Z,17.20
2017-06-12T00:50:32.731Z,17.20
2017-06-12T00:53:00.500Z,17.10
2017-06-12T00:55:28.236Z,17.10
2017-06-12T00:57:56.753Z,17.10
2017-06-12T01:00:24.521Z,17.10
2017-06-12T01:02:52.253Z,17.10
2017-06-12T01:05:20.188Z,17.10
2017-06-12T01:07:47.915Z,17.10
2017-06-12T01:10:15.656Z,17.10
2017-06-12T01:12:43.414Z,17.00
2017-06-12T01:15:11.153Z,17.10
2017-06-12T01:17:39.753Z,17.20
2017-06-12T01:20:07.476Z,17.10
2017-06-12T01:22:35.231Z,17.10
2017-06-12T01:25:02.999Z,17.10
2017-06-12T01:27:31.516Z,17.20
2017-06-12T01:29:59.288Z,17.20
2017-06-12T01:32:27.021Z,17.20
2017-06-12T01:34:55.531Z,17.20
2017-06-12T01:37:23.289Z,17.20
2017-06-12T01:39:51.015Z,17.20
2017-06-12T01:42:19.568Z,17.40
2017-06-12T01:44:47.297Z,17.40
2017-06-12T01:47:15.024Z,17.30
2017-06-12T01:49:43.553Z,17.30
2017-06-12T01:52:11.279Z,17.20
2017-06-12T01:54:39.049Z,17.20
2017-06-12T01:57:06.796Z,17.10
2017-06-12T01:59:34.520Z,17.00
2017-06-12T02:02:02.292Z,17.00
2017-06-12T02:04:30.791Z,17.00
2017-06-12T02:06:58.816Z,17.00
2017-06-12T02:09:26.549Z,17.10
2017-06-12T02:11:54.282Z,17.10
2017-06-12T02:14:22.086Z,17.20
2017-06-12T02:16:49.812Z,17.20
2017-06-12T02:19:17.585Z,17.30
2017-06-12T02:21:45.315Z,17.30
2017-06-12T02:24:13.808Z,17.40
2017-06-12T02:26:41.567Z,17.40
2017-06-12T02:29:09.301Z,17.40
2017-06-12T02:31:37.069Z,17.40
2017-06-12T02:34:05.567Z,17.50
2017-06-12T02:36:33.299Z,17.50
2017-06-12T02:39:01.061Z,17.50
2017-06-12T02:41:28.790Z,17.40
2017-06-12T02:43:56.575Z,17.40
2017-06-12T02:46:24.308Z,17.50
2017-06-12T02:48:52.034Z,17.50
2017-06-12T02:51:19.816Z,17.60
2017-06-12T02:53:47.544Z,17.60
2017-06-12T02:56:16.083Z,17.60
2017-06-12T02:58:43.817Z,17.60
2017-06-12T03:01:11.548Z,17.60
2017-06-12T03:03:39.322Z,17.60
2017-06-12T03:06:07.057Z,17.60
2017-06-12T03:08:35.597Z,17.70
2017-06-12T03:11:03.324Z,17.60
2017-06-12T03:13:31.061Z,17.70
2017-06-12T03:15:59.594Z,17.70
2017-06-12T03:18:27.324Z,17.70
2017-06-12T03:20:55.099Z,17.80
2017-06-12T03:23:22.824Z,17.80
2017-06-12T03:25:51.316Z,18.30
2017-06-12T03:28:19.080Z,18.30
2017-06-12T03:30:46.817Z,18.90
2017-06-12T03:33:14.584Z,18.70
2017-06-12T03:35:43.081Z,18.30
2017-06-12T03:38:10.811Z,18.30
2017-06-12T03:40:38.589Z,18.10
2017-06-12T03:43:07.088Z,18.00
2017-06-12T03:45:34.875Z,18.00
2017-06-12T03:48:02.604Z,18.00
2017-06-12T03:50:30.333Z,18.00
2017-06-12T03:52:58.156Z,18.10
2017-06-12T03:55:27.900Z,18.20
2017-06-12T03:57:55.684Z,18.20
2017-06-12T04:00:24.217Z,18.20
2017-06-12T04:02:51.945Z,18.20
2017-06-12T04:05:19.721Z,18.20
2017-06-12T04:07:47.468Z,18.30
2017-06-12T04:10:15.248Z,18.50
2017-06-12T04:12:42.984Z,18.70
2017-06-12T04:15:10.743Z,19.00
2017-06-12T04:17:38.511Z,21.00
2017-06-12T04:20:06.238Z,24.00
2017-06-12T04:22:34.823Z,27.50
2017-06-12T04:25:03.316Z,28.40
2017-06-12T04:27:31.818Z,28.50
2017-06-12T04:29:59.596Z,28.50
2017-06-12T04:32:27.325Z,28.20
2017-06-12T04:34:55.096Z,28.00
2017-06-12T04:37:22.828Z,27.20
2017-06-12T04:39:51.326Z,28.20
2017-06-12T04:42:19.090Z,28.20
2017-06-12T04:44:46.835Z,29.20
2017-06-12T04:47:15.392Z,30.60
2017-06-12T04:49:43.129Z,30.50
2017-06-12T04:52:10.868Z,30.00
2017-06-12T04:54:38.635Z,29.80
2017-06-12T04:57:06.368Z,28.50
2017-06-12T04:59:34.145Z,28.00
2017-06-12T05:02:01.884Z,28.30
2017-06-12T05:04:30.383Z,30.00
2017-06-12T05:06:58.148Z,30.00
2017-06-12T05:09:25.879Z,31.40
2017-06-12T05:11:54.458Z,33.60
2017-06-12T05:14:22.192Z,33.50
2017-06-12T05:16:49.971Z,34.30
2017-06-12T05:19:17.732Z,35.20
2017-06-12T05:21:45.470Z,34.10
2017-06-12T05:24:13.247Z,31.80
2017-06-12T05:26:40.984Z,30.80
2017-06-12T05:29:08.733Z,30.00
2017-06-12T05:31:36.510Z,31.40
2017-06-12T05:34:04.264Z,33.10
2017-06-12T05:36:32.052Z,33.20
2017-06-12T05:38:59.801Z,32.30
2017-06-12T05:41:27.538Z,30.90
2017-06-12T05:43:55.326Z,31.70
2017-06-12T05:46:23.062Z,33.40
2017-06-12T05:48:50.836Z,34.90
2017-06-12T05:51:18.562Z,33.90
2017-06-12T05:53:46.291Z,33.90
2017-06-12T05:56:14.825Z,35.20
2017-06-12T05:58:42.560Z,35.10
2017-06-12T06:01:10.360Z,34.90
2017-06-12T06:03:38.097Z,34.30
2017-06-12T06:06:05.848Z,33.60
2017-06-12T06:08:33.641Z,31.80
2017-06-12T06:11:01.379Z,31.20
2017-06-12T06:13:29.159Z,30.70
2017-06-12T06:15:56.899Z,30.20
2017-06-12T06:18:24.628Z,29.70
2017-06-12T06:20:53.167Z,28.70
2017-06-12T06:23:20.895Z,28.70
2017-06-12T06:25:48.665Z,28.30
2017-06-12T06:28:16.393Z,27.90
2017-06-12T06:30:44.884Z,27.50
2017-06-12T06:33:12.649Z,27.50
2017-06-12T06:35:40.377Z,27.30
2017-06-12T06:38:08.152Z,27.00
2017-06-12T06:40:36.652Z,26.20
2017-06-12T06:43:04.385Z,26.20
2017-06-12T06:45:32.916Z,25.60
2017-06-12T06:48:00.655Z,25.60
2017-06-12T06:50:28.480Z,25.30
2017-06-12T06:52:56.229Z,25.30
2017-06-12T06:55:23.960Z,25.10
2017-06-12T06:57:51.724Z,25.10
2017-06-12T07:00:19.452Z,25.10
2017-06-12T07:02:47.220Z,25.10
2017-06-12T07:05:14.952Z,25.00
2017-06-12T07:07:43.451Z,25.10
2017-06-12T07:10:11.222Z,25.10
2017-06-12T07:12:38.972Z,25.30
2017-06-12T07:15:06.744Z,25.50
2017-06-12T07:17:34.477Z,25.80
2017-06-12T07:20:02.973Z,25.70
2017-06-12T07:22:30.737Z,25.70
2017-06-12T07:24:58.463Z,25.60
2017-06-12T07:27:26.232Z,25.40
2017-06-12T07:29:54.018Z,25.40
2017-06-12T07:32:21.743Z,25.10
2017-06-12T07:34:49.503Z,25.10
2017-06-12T07:37:17.227Z,25.20
2017-06-12T07:39:45.053Z,25.30
2017-06-12T07:42:13.547Z,25.60
2017-06-12T07:44:41.276Z,25.60
2017-06-12T07:47:09.032Z,25.90
2017-06-12T07:49:36.768Z,26.20
2017-06-12T07:52:04.537Z,26.00
2017-06-12T07:54:32.264Z,25.80
2017-06-12T07:56:59.992Z,25.90
2017-06-12T07:59:28.526Z,25.80
2017-06-12T08:01:56.256Z,25.80
2017-06-12T08:04:24.033Z,25.80
2017-06-12T08:06:51.783Z,25.80
2017-06-12T08:09:19.513Z,25.80
2017-06-12T08:11:48.049Z,25.80
2017-06-12T08:14:15.772Z,25.80
2017-06-12T08:16:43.542Z,26.00
2017-06-12T08:19:11.269Z,26.70
2017-06-12T08:21:39.002Z,27.20
2017-06-12T08:24:06.766Z,27.40
2017-06-12T08:26:34.497Z,27.40
2017-06-12T08:29:02.286Z,27.30
2017-06-12T08:31:30.035Z,27.40
2017-06-12T08:33:57.765Z,27.70
2017-06-12T08:36:25.622Z,27.80
2017-06-12T08:38:53.350Z,28.00
2017-06-12T08:41:21.116Z,28.10
2017-06-12T08:43:48.844Z,28.40
2017-06-12T08:46:16.572Z,28.70
2017-06-12T08:48:44.331Z,29.10
2017-06-12T08:51:12.064Z,29.40
2017-06-12T08:53:40.603Z,30.30
2017-06-12T08:56:08.335Z,30.20
2017-06-12T08:58:36.065Z,30.30
2017-06-12T09:01:04.597Z,30.70
2017-06-12T09:03:32.329Z,30.70
2017-06-12T09:06:00.101Z,30.40
2017-06-12T09:08:29.597Z,30.10
2017-06-12T09:10:57.332Z,29.70
2017-06-12T09:13:25.861Z,30.20
2017-06-12T09:15:53.595Z,30.10
2017-06-12T09:18:21.421Z,29.80
2017-06-12T09:20:49.149Z,29.50
2017-06-12T09:23:17.762Z,29.40
2017-06-12T09:25:45.530Z,29.20
2017-06-12T09:28:13.262Z,29.20
2017-06-12T09:30:41.057Z,29.00
2017-06-12T09:33:09.549Z,29.10
2017-06-12T09:35:37.289Z,29.10
2017-06-12T09:38:05.052Z,29.30
2017-06-12T09:40:32.775Z,29.60
2017-06-12T09:43:00.540Z,29.60
2017-06-12T09:45:28.268Z,29.60
2017-06-12T09:47:55.997Z,29.00
2017-06-12T09:50:23.757Z,29.00
2017-06-12T09:52:51.483Z,29.30
2017-06-12T09:55:19.256Z,29.60
2017-06-12T09:57:46.985Z,29.80
2017-06-12T10:00:14.712Z,29.60
2017-06-12T10:02:43.241Z,29.90
2017-06-12T10:05:10.979Z,29.80
2017-06-12T10:07:38.749Z,29.90
2017-06-12T10:10:06.481Z,30.20
2017-06-12T10:12:34.977Z,30.30
2017-06-12T10:15:02.807Z,30.30
2017-06-12T10:17:31.303Z,30.50
2017-06-12T10:19:59.876Z,30.80
2017-06-12T10:22:28.375Z,31.00
2017-06-12T10:24:56.124Z,31.00
2017-06-12T10:27:23.893Z,31.30
2017-06-12T10:29:51.623Z,31.20
2017-06-12T10:32:19.392Z,30.80
2017-06-12T10:34:47.893Z,30.50
2017-06-12T10:37:15.637Z,30.50
2017-06-12T10:39:44.165Z,30.30
2017-06-12T10:42:11.893Z,30.30
2017-06-12T10:44:39.664Z,30.20
2017-06-12T10:47:07.393Z,30.30
2017-06-12T10:49:35.884Z,30.70
2017-06-12T10:52:04.412Z,30.90
2017-06-12T10:54:32.140Z,30.90
2017-06-12T10:56:59.973Z,30.80
2017-06-12T10:59:28.507Z,30.60
2017-06-12T11:01:56.241Z,30.60
2017-06-12T11:04:23.977Z,30.30
2017-06-12T11:06:52.504Z,30.50
2017-06-12T11:09:20.241Z,30.40
2017-06-12T11:11:47.984Z,30.70
2017-06-12T11:14:16.508Z,30.70
2017-06-12T11:16:44.241Z,30.70
2017-06-12T11:19:12.016Z,30.40
2017-06-12T11:21:45.392Z,30.10
2017-06-12T11:24:13.175Z,29.70
2017-06-12T11:26:46.883Z,29.50
2017-06-12T11:29:14.660Z,29.30
2017-06-12T11:31:42.401Z,29.40
2017-06-12T11:34:10.130Z,29.40
2017-06-12T11:36:37.890Z,29.40
2017-06-12T11:39:06.384Z,29.40
2017-06-12T11:41:34.123Z,29.40
2017-06-12T11:44:02.689Z,29.50
2017-06-12T11:46:30.420Z,29.50
2017-06-12T11:48:58.190Z,29.80
2017-06-12T11:51:25.916Z,30.20
2017-06-12T11:53:53.644Z,30.10
2017-06-12T11:56:21.411Z,29.90
2017-06-12T11:58:49.908Z,29.90
2017-06-12T12:01:17.686Z,29.90
2017-06-12T12:03:45.417Z,30.10
2017-06-12T12:06:13.143Z,30.10
2017-06-12T12:08:40.946Z,30.10
2017-06-12T12:11:08.684Z,30.10
2017-06-12T12:13:37.237Z,29.90
2017-06-12T12:16:04.977Z,29.80
2017-06-12T12:18:32.703Z,29.80
2017-06-12T12:21:00.484Z,29.70
2017-06-12T12:23:28.215Z,29.40
2017-06-12T12:25:56.752Z,28.90
2017-06-12T12:28:24.488Z,28.90
2017-06-12T12:30:52.227Z,28.80
2017-06-12T12:33:19.987Z,28.70
2017-06-12T12:35:47.721Z,28.70
2017-06-12T12:38:15.492Z,29.00
2017-06-12T12:40:43.991Z,29.50
2017-06-12T12:43:11.719Z,29.50
2017-06-12T12:45:39.482Z,29.50
2017-06-12T12:48:07.217Z,29.50
2017-06-12T12:50:35.161Z,29.60
2017-06-12T12:53:02.941Z,29.70
2017-06-12T12:55:30.673Z,29.60
2017-06-12T12:57:58.427Z,29.60
2017-06-12T13:00:26.153Z,29.90
2017-06-12T13:02:53.929Z,30.00
2017-06-12T13:05:22.444Z,30.00
2017-06-12T13:07:50.181Z,30.00
2017-06-12T13:10:17.940Z,30.30
2017-06-12T13:12:45.667Z,30.50
2017-06-12T13:15:13.441Z,30.40
2017-06-12T13:17:41.200Z,30.40
2017-06-12T13:20:08.953Z,30.00
2017-06-12T13:22:36.715Z,29.90
2017-06-12T13:25:04.539Z,30.00
2017-06-12T13:27:32.322Z,30.10
2017-06-12T13:30:00.064Z,30.20
2017-06-12T13:32:27.806Z,30.20
2017-06-12T13:34:55.569Z,29.80
2017-06-12T13:37:23.305Z,29.30
2017-06-12T13:39:51.852Z,28.60
2017-06-12T13:42:19.586Z,28.60
2017-06-12T13:44:47.325Z,28.40
2017-06-12T13:47:15.104Z,28.50
2017-06-12T13:49:42.837Z,28.70
2017-06-12T13:52:10.604Z,28.50
2017-06-12T13:54:38.328Z,28.40
2017-06-12T13:57:06.061Z,28.80
2017-06-12T13:59:33.819Z,29.50
2017-06-12T14:02:01.549Z,29.60
2017-06-12T14:04:29.324Z,29.50
2017-06-12T14:06:57.048Z,29.50
2017-06-12T14:09:25.550Z,28.90
2017-06-12T14:11:53.308Z,28.90
2017-06-12T14:14:21.036Z,29.00
2017-06-12T14:16:48.804Z,28.80
2017-06-12T14:19:16.545Z,28.50
2017-06-12T14:21:44.284Z,28.70
2017-06-12T14:24:12.044Z,28.70
2017-06-12T14:26:39.772Z,28.40
2017-06-12T14:29:07.539Z,28.20
2017-06-12T14:31:35.284Z,28.10
2017-06-12T14:34:03.772Z,28.20
2017-06-12T14:36:31.575Z,28.20
2017-06-12T14:38:59.304Z,28.20
2017-06-12T14:41:27.099Z,28.10
2017-06-12T14:43:54.857Z,28.00
2017-06-12T14:46:22.590Z,27.70
2017-06-12T14:48:50.347Z,27.40
2017-06-12T14:51:18.080Z,27.00
2017-06-12T14:53:46.617Z,27.10
2017-06-12T14:56:14.349Z,27.10
2017-06-12T14:58:42.092Z,27.30
2017-06-12T15:01:10.612Z,27.30
2017-06-12T15:03:38.344Z,27.30
2017-06-12T15:06:06.174Z,27.30
2017-06-12T15:08:33.909Z,27.20
2017-06-12T15:11:01.636Z,27.10
2017-06-12T15:13:29.409Z,27.10
2017-06-12T15:15:57.137Z,27.20
2017-06-12T15:18:25.782Z,27.40
2017-06-12T15:20:53.510Z,27.20
2017-06-12T15:23:21.296Z,27.10
2017-06-12T15:25:49.075Z,27.20
2017-06-12T15:28:16.806Z,27.10
2017-06-12T15:30:44.577Z,27.00
2017-06-12T15:33:12.319Z,26.90
2017-06-12T15:35:40.052Z,26.90
2017-06-12T15:38:08.606Z,26.70
2017-06-12T15:40:36.342Z,26.60
2017-06-12T15:43:04.215Z,26.60
2017-06-12T15:45:31.953Z,26.40
2017-06-12T15:47:59.682Z,26.30
2017-06-12T15:50:27.446Z,26.30
2017-06-12T15:52:55.180Z,26.30
2017-06-12T15:55:22.949Z,26.30
2017-06-12T15:57:51.439Z,26.20
2017-06-12T16:00:19.934Z,26.30
2017-06-12T16:02:47.697Z,26.20
2017-06-12T16:05:15.423Z,26.20
2017-06-12T16:07:43.957Z,26.00
2017-06-12T16:10:11.698Z,26.00
2017-06-12T16:12:39.433Z,26.00
2017-06-12T16:15:07.962Z,25.90
2017-06-12T16:17:35.687Z,26.00
2017-06-12T16:20:03.456Z,25.90
2017-06-12T16:22:31.197Z,25.70
2017-06-12T16:24:59.687Z,25.40
2017-06-12T16:27:27.493Z,25.40
2017-06-12T16:29:55.228Z,25.20
2017-06-12T16:32:22.996Z,25.20
2017-06-12T16:34:50.724Z,25.10
2017-06-12T16:37:19.220Z,24.90
2017-06-12T16:39:46.985Z,24.90
2017-06-12T16:42:14.719Z,24.80
2017-06-12T16:44:43.256Z,24.60
2017-06-12T16:47:11.019Z,24.60
2017-06-12T16:49:38.744Z,24.60
2017-06-12T16:52:06.577Z,24.50
2017-06-12T16:54:35.078Z,24.30
2017-06-12T16:57:02.895Z,24.30
2017-06-12T16:59:30.811Z,24.30
2017-06-12T17:01:58.858Z,24.30
2017-06-12T17:04:27.405Z,24.10
2017-06-12T17:06:55.227Z,24.10
2017-06-12T17:09:23.017Z,24.00
2017-06-12T17:11:50.840Z,24.00
2017-06-12T17:14:18.779Z,24.00
2017-06-12T17:16:47.402Z,23.90
2017-06-12T17:19:15.210Z,23.80
2017-06-12T17:21:43.994Z,23.80
2017-06-12T17:24:12.516Z,23.70
2017-06-12T17:26:40.283Z,23.70
2017-06-12T17:29:08.045Z,23.70
2017-06-12T17:31:35.772Z,23.60
2017-06-12T17:34:03.558Z,23.50
2017-06-12T17:36:31.308Z,23.40
2017-06-12T17:38:59.839Z,23.30
2017-06-12T17:41:27.605Z,23.30
2017-06-12T17:43:56.262Z,23.20
2017-06-12T17:46:24.039Z,23.20
2017-06-12T17:48:51.774Z,23.10
2017-06-12T17:51:19.503Z,23.10
2017-06-12T17:53:47.269Z,23.10
2017-06-12T17:56:15.767Z,22.90
2017-06-12T17:58:43.551Z,22.90
2017-06-12T18:01:11.276Z,22.90
2017-06-12T18:03:39.025Z,22.90
2017-06-12T18:06:07.561Z,22.70
2017-06-12T18:08:35.306Z,22.70
2017-06-12T18:11:03.080Z,22.60
2017-06-12T18:13:30.810Z,22.60
2017-06-12T18:15:58.541Z,22.50
2017-06-12T18:18:26.308Z,22.40
2017-06-12T18:20:54.810Z,22.20
2017-06-12T18:23:22.826Z,22.20
2017-06-12T18:25:50.575Z,22.20
2017-06-12T18:28:18.304Z,22.10
2017-06-12T18:30:46.071Z,22.00
2017-06-12T18:33:13.812Z,21.90
2017-06-12T18:35:42.362Z,21.80
2017-06-12T18:38:10.092Z,21.70
2017-06-12T18:40:37.833Z,21.60
2017-06-12T18:43:05.622Z,21.60
2017-06-12T18:45:33.351Z,21.50
2017-06-12T18:48:01.120Z,21.50
2017-06-12T18:50:28.858Z,21.40
2017-06-12T18:52:57.357Z,21.20
2017-06-12T18:55:25.128Z,21.20
2017-06-12T18:57:52.864Z,21.20
2017-06-12T19:00:20.631Z,21.10
2017-06-12T19:02:48.357Z,21.00
2017-06-12T19:05:16.088Z,20.90
2017-06-12T19:07:43.850Z,20.90
2017-06-12T19:10:11.593Z,20.80
2017-06-12T19:12:39.360Z,20.80
2017-06-12T19:15:07.109Z,20.70
2017-06-12T19:17:34.849Z,20.70
2017-06-12T19:20:02.645Z,20.70
2017-06-12T19:22:30.386Z,20.70
2017-06-12T19:24:58.190Z,20.60
2017-06-12T19:27:25.949Z,20.50
2017-06-12T19:29:53.711Z,20.50
2017-06-12T19:32:21.514Z,20.40
2017-06-12T19:34:49.279Z,20.30
2017-06-12T19:37:17.123Z,20.30
2017-06-12T19:39:45.675Z,20.10
2017-06-12T19:42:13.439Z,20.10
2017-06-12T19:44:41.239Z,20.10
2017-06-12T19:47:09.770Z,20.00
2017-06-12T19:49:37.571Z,19.90
2017-06-12T19:52:06.129Z,19.90
2017-06-12T19:54:33.902Z,19.90
2017-06-12T19:57:01.698Z,19.90
2017-06-12T19:59:29.491Z,19.80
2017-06-12T20:01:58.532Z,19.80
2017-06-12T20:04:27.259Z,19.70
2017-06-12T20:06:55.325Z,19.70
2017-06-12T20:09:23.297Z,19.70
2017-06-12T20:11:51.099Z,19.60
2017-06-12T20:14:19.881Z,19.50
2017-06-12T20:16:47.775Z,19.40
2017-06-12T20:19:15.636Z,19.40
2017-06-12T20:21:43.438Z,19.30
2017-06-12T20:24:11.339Z,19.20
2017-06-12T20:26:39.971Z,19.20
2017-06-12T20:29:07.960Z,19.20
2017-06-12T20:31:36.603Z,19.00
2017-06-12T20:34:04.815Z,19.00
2017-06-12T20:36:32.690Z,18.90
2017-06-12T20:39:01.292Z,18.80
2017-06-12T20:41:29.072Z,18.80
2017-06-12T20:43:56.947Z,18.70
2017-06-12T20:46:24.805Z,18.60
2017-06-12T20:48:52.581Z,18.60
2017-06-12T20:51:20.451Z,18.50
2017-06-12T20:53:48.290Z,18.50
2017-06-12T20:56:16.339Z,18.40
2017-06-12T20:58:44.903Z,18.30
2017-06-12T21:01:12.670Z,18.30
2017-06-12T21:03:40.474Z,18.30
2017-06-12T21:06:08.243Z,18.20
2017-06-12T21:08:36.017Z,18.10
2017-06-12T21:11:03.828Z,18.10
2017-06-12T21:13:32.358Z,18.00
2017-06-12T21:16:00.162Z,18.00
2017-06-12T21:18:27.915Z,17.90
2017-06-12T21:20:55.691Z,17.80
2017-06-12T21:23:24.319Z,17.70
2017-06-12T21:25:52.077Z,17.70
2017-06-12T21:28:19.886Z,17.60
2017-06-12T21:30:47.668Z,17.60
2017-06-12T21:33:16.186Z,17.60
2017-06-12T21:35:44.001Z,17.60
2017-06-12T21:38:12.543Z,17.60
2017-06-12T21:40:40.334Z,17.50
2017-06-12T21:43:08.862Z,17.40
2017-06-12T21:45:36.614Z,17.40
2017-06-12T21:48:04.830Z,17.40
2017-06-12T21:50:32.595Z,17.40
2017-06-12T21:53:00.418Z,17.30
2017-06-12T21:55:29.187Z,17.20
2017-06-12T21:57:56.955Z,17.20
2017-06-12T22:00:24.777Z,17.10
2017-06-12T22:02:52.535Z,17.00
2017-06-12T22:05:27.716Z,17.00
2017-06-12T22:07:55.460Z,16.90
2017-06-12T22:10:23.216Z,16.80
2017-06-12T22:12:51.766Z,16.70
2017-06-12T22:15:19.533Z,16.70
2017-06-12T22:17:47.339Z,16.70
2017-06-12T22:20:15.121Z,16.60
2017-06-12T22:22:42.875Z,16.50
2017-06-12T22:25:10.662Z,16.50
2017-06-12T22:27:38.436Z,16.50
2017-06-12T22:30:06.248Z,16.50
2017-06-12T22:32:35.173Z,16.40
2017-06-12T22:35:02.938Z,16.20
2017-06-12T22:37:30.725Z,16.20
2017-06-12T22:39:59.254Z,16.10
2017-06-12T22:42:27.060Z,16.10
2017-06-12T22:44:54.818Z,16.10
2017-06-12T22:47:22.572Z,16.00
2017-06-12T22:49:50.375Z,15.90
2017-06-12T22:52:18.131Z,15.80
2017-06-12T22:54:47.806Z,15.80
2017-06-12T22:57:15.566Z,15.80
2017-06-12T22:59:43.310Z,15.80
2017-06-12T23:02:11.093Z,15.80
2017-06-12T23:04:38.860Z,15.90
2017-06-12T23:07:07.140Z,15.90
2017-06-12T23:09:34.915Z,15.80
2017-06-12T23:12:03.460Z,15.80
2017-06-12T23:14:31.241Z,15.80
2017-06-12T23:16:59.010Z,15.80
2017-06-12T23:19:27.586Z,15.80
2017-06-12T23:21:55.350Z,15.80
2017-06-12T23:24:23.121Z,15.90
2017-06-12T23:26:50.912Z,15.80
2017-06-12T23:29:18.671Z,15.60
2017-06-12T23:31:46.455Z,15.50
2017-06-12T23:34:14.195Z,15.40
2017-06-12T23:36:41.974Z,15.30
2017-06-12T23:39:09.726Z,15.20
2017-06-12T23:41:37.487Z,15.10
2017-06-12T23:44:05.326Z,15.00
2017-06-12T23:46:33.080Z,14.90
2017-06-12T23:49:00.874Z,14.90
2017-06-12T23:51:28.617Z,14.80
2017-06-12T23:53:57.001Z,14.90
2017-06-12T23:56:24.799Z,14.90
2017-06-12T23:58:52.553Z,15.10
